sensor_id;sensor_type;location;lat;lon;timestamp;temperature;humidity
17346;DHT22;8790;53.590;10.002;2022-11-10T00:02:31;12.20;99.90
17346;DHT22;8790;53.590;10.002;2022-11-10T00:05:23;12.20;99.90
17346;DHT22;8790;53.590;10.002;2022-11-10T00:08:13;12.20;99.90
17346;DHT22;8790;53.590;10.002;2022-11-10T00:11:04;12.10;99.90
17346;DHT22;8790;53.590;10.002;2022-11-10T00:13:55;12.20;99.90
17346;DHT22;8790;53.590;10.002;2022-11-10T00:17:03;12.20;99.90
17346;DHT22;8790;53.590;10.002;2022-11-10T00:19:54;12.20;99.90
17346;DHT22;8790;53.590;10.002;2022-11-10T00:22:45;12.20;99.90
17346;DHT22;8790;53.590;10.002;2022-11-10T00:25:36;12.20;99.90
17346;DHT22;8790;53.590;10.002;2022-11-10T00:28:28;12.10;99.90
17346;DHT22;8790;53.590;10.002;2022-11-10T00:31:19;12.00;99.90
17346;DHT22;8790;53.590;10.002;2022-11-10T00:34:11;12.00;99.90
17346;DHT22;8790;53.590;10.002;2022-11-10T00:37:02;11.90;99.90
17346;DHT22;8790;53.590;10.002;2022-11-10T00:39:54;12.00;99.90
17346;DHT22;8790;53.590;10.002;2022-11-10T00:42:44;12.00;99.90
17346;DHT22;8790;53.590;10.002;2022-11-10T00:45:35;12.00;99.90
17346;DHT22;8790;53.590;10.002;2022-11-10T00:48:25;12.00;99.90
17346;DHT22;8790;53.590;10.002;2022-11-10T00:51:20;12.10;99.90
17346;DHT22;8790;53.590;10.002;2022-11-10T00:54:11;11.90;99.90
17346;DHT22;8790;53.590;10.002;2022-11-10T00:57:03;12.00;99.90
17346;DHT22;8790;53.590;10.002;2022-11-10T00:59:53;11.90;99.90
17346;DHT22;8790;53.590;10.002;2022-11-10T01:02:44;11.90;99.90
17346;DHT22;8790;53.590;10.002;2022-11-10T01:05:36;11.90;99.90
17346;DHT22;8790;53.590;10.002;2022-11-10T01:08:26;11.90;99.90
17346;DHT22;8790;53.590;10.002;2022-11-10T01:11:19;11.90;99.90
17346;DHT22;8790;53.590;10.002;2022-11-10T01:14:11;12.00;99.90
17346;DHT22;8790;53.590;10.002;2022-11-10T01:17:01;11.90;99.90
17346;DHT22;8790;53.590;10.002;2022-11-10T01:19:52;11.90;99.90
17346;DHT22;8790;53.590;10.002;2022-11-10T01:22:42;11.80;99.90
17346;DHT22;8790;53.590;10.002;2022-11-10T01:25:32;11.80;99.90
17346;DHT22;8790;53.590;10.002;2022-11-10T01:28:23;11.80;99.90
17346;DHT22;8790;53.590;10.002;2022-11-10T01:31:17;11.80;99.90
17346;DHT22;8790;53.590;10.002;2022-11-10T01:34:08;11.70;99.90
17346;DHT22;8790;53.590;10.002;2022-11-10T01:36:58;11.70;99.90
17346;DHT22;8790;53.590;10.002;2022-11-10T01:39:49;11.60;99.90
17346;DHT22;8790;53.590;10.002;2022-11-10T01:42:47;11.70;99.90
17346;DHT22;8790;53.590;10.002;2022-11-10T01:45:45;11.60;99.90
17346;DHT22;8790;53.590;10.002;2022-11-10T01:48:39;11.60;99.90
17346;DHT22;8790;53.590;10.002;2022-11-10T01:51:36;11.50;99.90
17346;DHT22;8790;53.590;10.002;2022-11-10T01:54:31;11.60;99.90
17346;DHT22;8790;53.590;10.002;2022-11-10T01:57:22;11.60;99.90
17346;DHT22;8790;53.590;10.002;2022-11-10T02:00:14;11.50;99.90
17346;DHT22;8790;53.590;10.002;2022-11-10T02:03:09;11.60;99.90
17346;DHT22;8790;53.590;10.002;2022-11-10T02:06:03;11.50;99.90
17346;DHT22;8790;53.590;10.002;2022-11-10T02:08:54;11.40;99.90
17346;DHT22;8790;53.590;10.002;2022-11-10T02:11:46;11.50;99.90
17346;DHT22;8790;53.590;10.002;2022-11-10T02:14:38;11.40;99.90
17346;DHT22;8790;53.590;10.002;2022-11-10T02:17:29;11.40;99.90
17346;DHT22;8790;53.590;10.002;2022-11-10T02:20:20;11.50;99.90
17346;DHT22;8790;53.590;10.002;2022-11-10T02:23:13;11.60;99.90
17346;DHT22;8790;53.590;10.002;2022-11-10T02:26:05;11.60;99.90
17346;DHT22;8790;53.590;10.002;2022-11-10T02:28:55;11.60;99.90
17346;DHT22;8790;53.590;10.002;2022-11-10T02:31:46;11.50;99.90
17346;DHT22;8790;53.590;10.002;2022-11-10T02:34:36;11.40;99.90
17346;DHT22;8790;53.590;10.002;2022-11-10T02:37:27;11.40;99.90
17346;DHT22;8790;53.590;10.002;2022-11-10T02:40:19;11.40;99.90
17346;DHT22;8790;53.590;10.002;2022-11-10T02:43:11;11.40;99.90
17346;DHT22;8790;53.590;10.002;2022-11-10T02:46:02;11.40;99.90
17346;DHT22;8790;53.590;10.002;2022-11-10T02:48:53;11.30;99.90
17346;DHT22;8790;53.590;10.002;2022-11-10T02:51:43;11.30;99.90
17346;DHT22;8790;53.590;10.002;2022-11-10T02:54:34;11.20;99.90
17346;DHT22;8790;53.590;10.002;2022-11-10T02:57:26;11.20;99.90
17346;DHT22;8790;53.590;10.002;2022-11-10T03:00:17;11.20;99.90
17346;DHT22;8790;53.590;10.002;2022-11-10T03:03:08;11.20;99.90
17346;DHT22;8790;53.590;10.002;2022-11-10T03:05:59;11.30;99.90
17346;DHT22;8790;53.590;10.002;2022-11-10T03:08:49;11.20;99.90
17346;DHT22;8790;53.590;10.002;2022-11-10T03:11:40;11.20;99.90
17346;DHT22;8790;53.590;10.002;2022-11-10T03:14:31;11.10;99.90
17346;DHT22;8790;53.590;10.002;2022-11-10T03:17:22;11.10;99.90
17346;DHT22;8790;53.590;10.002;2022-11-10T03:20:12;11.10;99.90
17346;DHT22;8790;53.590;10.002;2022-11-10T03:23:03;11.20;99.90
17346;DHT22;8790;53.590;10.002;2022-11-10T03:25:54;11.20;99.90
17346;DHT22;8790;53.590;10.002;2022-11-10T03:28:44;11.10;99.90
17346;DHT22;8790;53.590;10.002;2022-11-10T03:31:36;11.20;99.90
17346;DHT22;8790;53.590;10.002;2022-11-10T03:34:27;11.10;99.90
17346;DHT22;8790;53.590;10.002;2022-11-10T03:37:17;11.20;99.90
17346;DHT22;8790;53.590;10.002;2022-11-10T03:40:08;11.10;99.90
17346;DHT22;8790;53.590;10.002;2022-11-10T03:42:59;11.00;99.90
17346;DHT22;8790;53.590;10.002;2022-11-10T03:45:49;10.90;99.90
17346;DHT22;8790;53.590;10.002;2022-11-10T03:48:41;11.00;99.90
17346;DHT22;8790;53.590;10.002;2022-11-10T03:51:31;11.10;99.90
17346;DHT22;8790;53.590;10.002;2022-11-10T03:54:22;11.00;99.90
17346;DHT22;8790;53.590;10.002;2022-11-10T03:57:13;10.90;99.90
17346;DHT22;8790;53.590;10.002;2022-11-10T04:00:04;11.00;99.90
17346;DHT22;8790;53.590;10.002;2022-11-10T04:02:55;11.00;99.90
17346;DHT22;8790;53.590;10.002;2022-11-10T04:05:47;11.00;99.90
17346;DHT22;8790;53.590;10.002;2022-11-10T04:08:55;11.00;99.90
17346;DHT22;8790;53.590;10.002;2022-11-10T04:11:48;11.00;99.90
17346;DHT22;8790;53.590;10.002;2022-11-10T04:14:55;11.00;99.90
17346;DHT22;8790;53.590;10.002;2022-11-10T04:18:03;11.00;99.90
17346;DHT22;8790;53.590;10.002;2022-11-10T04:21:09;11.10;99.90
17346;DHT22;8790;53.590;10.002;2022-11-10T04:24:00;11.00;99.90
17346;DHT22;8790;53.590;10.002;2022-11-10T04:26:50;11.00;99.90
17346;DHT22;8790;53.590;10.002;2022-11-10T04:29:41;11.10;99.90
17346;DHT22;8790;53.590;10.002;2022-11-10T04:32:31;11.00;99.90
17346;DHT22;8790;53.590;10.002;2022-11-10T04:35:22;11.10;99.90
17346;DHT22;8790;53.590;10.002;2022-11-10T04:38:13;11.10;99.90
17346;DHT22;8790;53.590;10.002;2022-11-10T04:41:04;11.00;99.90
17346;DHT22;8790;53.590;10.002;2022-11-10T04:43:55;11.00;99.90
17346;DHT22;8790;53.590;10.002;2022-11-10T04:46:46;11.00;99.90
17346;DHT22;8790;53.590;10.002;2022-11-10T04:49:37;11.00;99.90
17346;DHT22;8790;53.590;10.002;2022-11-10T04:52:28;11.00;99.90
17346;DHT22;8790;53.590;10.002;2022-11-10T04:55:19;11.10;99.90
17346;DHT22;8790;53.590;10.002;2022-11-10T04:58:11;11.20;99.90
17346;DHT22;8790;53.590;10.002;2022-11-10T05:01:01;11.10;99.90
17346;DHT22;8790;53.590;10.002;2022-11-10T05:03:52;11.10;99.90
17346;DHT22;8790;53.590;10.002;2022-11-10T05:06:42;11.10;99.90
17346;DHT22;8790;53.590;10.002;2022-11-10T05:09:33;11.20;99.90
17346;DHT22;8790;53.590;10.002;2022-11-10T05:12:25;11.20;99.90
17346;DHT22;8790;53.590;10.002;2022-11-10T05:15:15;11.10;99.90
17346;DHT22;8790;53.590;10.002;2022-11-10T05:18:06;11.00;99.90
17346;DHT22;8790;53.590;10.002;2022-11-10T05:20:57;11.10;99.90
17346;DHT22;8790;53.590;10.002;2022-11-10T05:23:47;11.00;99.90
17346;DHT22;8790;53.590;10.002;2022-11-10T05:26:37;11.10;99.90
17346;DHT22;8790;53.590;10.002;2022-11-10T05:29:29;11.00;99.90
17346;DHT22;8790;53.590;10.002;2022-11-10T05:32:19;11.00;99.90
17346;DHT22;8790;53.590;10.002;2022-11-10T05:35:10;11.10;99.90
17346;DHT22;8790;53.590;10.002;2022-11-10T05:38:00;11.20;99.90
17346;DHT22;8790;53.590;10.002;2022-11-10T05:40:51;11.20;99.90
17346;DHT22;8790;53.590;10.002;2022-11-10T05:43:41;11.20;99.90
17346;DHT22;8790;53.590;10.002;2022-11-10T05:46:33;11.00;99.90
17346;DHT22;8790;53.590;10.002;2022-11-10T05:49:23;10.90;99.90
17346;DHT22;8790;53.590;10.002;2022-11-10T05:52:15;10.90;99.90
17346;DHT22;8790;53.590;10.002;2022-11-10T05:55:06;10.90;99.90
17346;DHT22;8790;53.590;10.002;2022-11-10T05:57:57;10.90;99.90
17346;DHT22;8790;53.590;10.002;2022-11-10T06:00:47;10.90;99.90
17346;DHT22;8790;53.590;10.002;2022-11-10T06:03:39;10.90;99.90
17346;DHT22;8790;53.590;10.002;2022-11-10T06:06:29;10.90;99.90
17346;DHT22;8790;53.590;10.002;2022-11-10T06:09:20;10.90;99.90
17346;DHT22;8790;53.590;10.002;2022-11-10T06:12:10;10.80;99.90
17346;DHT22;8790;53.590;10.002;2022-11-10T06:15:01;10.80;99.90
17346;DHT22;8790;53.590;10.002;2022-11-10T06:17:53;10.70;99.90
17346;DHT22;8790;53.590;10.002;2022-11-10T06:20:46;10.70;99.90
17346;DHT22;8790;53.590;10.002;2022-11-10T06:23:36;10.70;99.90
17346;DHT22;8790;53.590;10.002;2022-11-10T06:26:27;10.80;99.90
17346;DHT22;8790;53.590;10.002;2022-11-10T06:29:17;10.80;99.90
17346;DHT22;8790;53.590;10.002;2022-11-10T06:32:08;10.80;99.90
17346;DHT22;8790;53.590;10.002;2022-11-10T06:34:59;10.80;99.90
17346;DHT22;8790;53.590;10.002;2022-11-10T06:37:58;10.80;99.90
17346;DHT22;8790;53.590;10.002;2022-11-10T06:40:49;10.70;99.90
17346;DHT22;8790;53.590;10.002;2022-11-10T06:43:39;10.70;99.90
17346;DHT22;8790;53.590;10.002;2022-11-10T06:46:30;10.80;99.90
17346;DHT22;8790;53.590;10.002;2022-11-10T06:49:21;10.70;99.90
17346;DHT22;8790;53.590;10.002;2022-11-10T06:52:11;10.70;99.90
17346;DHT22;8790;53.590;10.002;2022-11-10T06:55:04;10.70;99.90
17346;DHT22;8790;53.590;10.002;2022-11-10T06:57:54;10.70;99.90
17346;DHT22;8790;53.590;10.002;2022-11-10T07:00:46;10.60;99.90
17346;DHT22;8790;53.590;10.002;2022-11-10T07:03:37;10.70;99.90
17346;DHT22;8790;53.590;10.002;2022-11-10T07:06:27;10.70;99.90
17346;DHT22;8790;53.590;10.002;2022-11-10T07:09:18;10.70;99.90
17346;DHT22;8790;53.590;10.002;2022-11-10T07:12:10;10.70;99.90
17346;DHT22;8790;53.590;10.002;2022-11-10T07:15:00;10.70;99.90
17346;DHT22;8790;53.590;10.002;2022-11-10T07:17:51;10.70;99.90
17346;DHT22;8790;53.590;10.002;2022-11-10T07:20:41;10.70;99.90
17346;DHT22;8790;53.590;10.002;2022-11-10T07:23:34;10.70;99.90
17346;DHT22;8790;53.590;10.002;2022-11-10T07:26:24;10.70;99.90
17346;DHT22;8790;53.590;10.002;2022-11-10T07:29:16;10.70;99.90
17346;DHT22;8790;53.590;10.002;2022-11-10T07:32:07;10.70;99.90
17346;DHT22;8790;53.590;10.002;2022-11-10T07:34:57;10.70;99.90
17346;DHT22;8790;53.590;10.002;2022-11-10T07:37:48;10.80;99.90
17346;DHT22;8790;53.590;10.002;2022-11-10T07:40:39;10.80;99.90
17346;DHT22;8790;53.590;10.002;2022-11-10T07:43:30;10.70;99.90
17346;DHT22;8790;53.590;10.002;2022-11-10T07:46:21;10.70;99.90
17346;DHT22;8790;53.590;10.002;2022-11-10T07:49:12;10.80;99.90
17346;DHT22;8790;53.590;10.002;2022-11-10T07:52:02;10.90;99.90
17346;DHT22;8790;53.590;10.002;2022-11-10T07:54:52;10.80;99.90
17346;DHT22;8790;53.590;10.002;2022-11-10T07:57:42;10.80;99.90
17346;DHT22;8790;53.590;10.002;2022-11-10T08:00:33;10.70;99.90
17346;DHT22;8790;53.590;10.002;2022-11-10T08:03:28;10.80;99.90
17346;DHT22;8790;53.590;10.002;2022-11-10T08:06:18;10.80;99.90
17346;DHT22;8790;53.590;10.002;2022-11-10T08:09:09;10.90;99.90
17346;DHT22;8790;53.590;10.002;2022-11-10T08:11:59;10.90;99.90
17346;DHT22;8790;53.590;10.002;2022-11-10T08:14:50;11.00;99.90
17346;DHT22;8790;53.590;10.002;2022-11-10T08:17:41;11.00;99.90
17346;DHT22;8790;53.590;10.002;2022-11-10T08:20:33;11.00;99.90
17346;DHT22;8790;53.590;10.002;2022-11-10T08:23:23;11.00;99.90
17346;DHT22;8790;53.590;10.002;2022-11-10T08:26:14;11.10;99.90
17346;DHT22;8790;53.590;10.002;2022-11-10T08:29:06;11.10;99.90
17346;DHT22;8790;53.590;10.002;2022-11-10T08:31:56;11.00;99.90
17346;DHT22;8790;53.590;10.002;2022-11-10T08:34:47;11.00;99.90
17346;DHT22;8790;53.590;10.002;2022-11-10T08:37:38;11.10;99.90
17346;DHT22;8790;53.590;10.002;2022-11-10T08:40:29;11.20;99.90
17346;DHT22;8790;53.590;10.002;2022-11-10T08:43:19;11.20;99.90
17346;DHT22;8790;53.590;10.002;2022-11-10T08:46:10;11.30;99.90
17346;DHT22;8790;53.590;10.002;2022-11-10T08:49:00;11.30;99.90
17346;DHT22;8790;53.590;10.002;2022-11-10T08:51:51;11.30;99.90
17346;DHT22;8790;53.590;10.002;2022-11-10T08:54:42;11.40;99.90
17346;DHT22;8790;53.590;10.002;2022-11-10T08:57:33;11.40;99.90
17346;DHT22;8790;53.590;10.002;2022-11-10T09:00:24;11.40;99.90
17346;DHT22;8790;53.590;10.002;2022-11-10T09:03:16;11.50;99.90
17346;DHT22;8790;53.590;10.002;2022-11-10T09:06:06;11.50;99.90
17346;DHT22;8790;53.590;10.002;2022-11-10T09:08:57;11.60;99.90
17346;DHT22;8790;53.590;10.002;2022-11-10T09:11:49;11.50;99.90
17346;DHT22;8790;53.590;10.002;2022-11-10T09:14:39;11.60;99.90
17346;DHT22;8790;53.590;10.002;2022-11-10T09:17:30;11.60;99.90
17346;DHT22;8790;53.590;10.002;2022-11-10T09:20:21;11.60;99.90
17346;DHT22;8790;53.590;10.002;2022-11-10T09:23:12;11.70;99.90
17346;DHT22;8790;53.590;10.002;2022-11-10T09:26:03;11.60;99.90
17346;DHT22;8790;53.590;10.002;2022-11-10T09:28:56;11.70;99.90
17346;DHT22;8790;53.590;10.002;2022-11-10T09:31:46;11.70;99.90
17346;DHT22;8790;53.590;10.002;2022-11-10T09:34:37;11.70;99.90
17346;DHT22;8790;53.590;10.002;2022-11-10T09:37:27;11.80;99.90
17346;DHT22;8790;53.590;10.002;2022-11-10T09:40:21;11.90;99.90
17346;DHT22;8790;53.590;10.002;2022-11-10T09:43:18;11.90;99.90
17346;DHT22;8790;53.590;10.002;2022-11-10T09:46:15;11.90;99.90
17346;DHT22;8790;53.590;10.002;2022-11-10T09:49:13;11.90;99.90
17346;DHT22;8790;53.590;10.002;2022-11-10T09:52:06;12.00;99.90
17346;DHT22;8790;53.590;10.002;2022-11-10T09:55:01;12.00;99.90
17346;DHT22;8790;53.590;10.002;2022-11-10T09:57:53;12.00;99.90
17346;DHT22;8790;53.590;10.002;2022-11-10T10:00:49;12.00;99.90
17346;DHT22;8790;53.590;10.002;2022-11-10T10:03:47;12.10;99.90
17346;DHT22;8790;53.590;10.002;2022-11-10T10:06:44;12.00;99.90
17346;DHT22;8790;53.590;10.002;2022-11-10T10:09:45;12.10;99.90
17346;DHT22;8790;53.590;10.002;2022-11-10T10:12:53;12.10;99.90
17346;DHT22;8790;53.590;10.002;2022-11-10T10:15:57;12.20;99.90
17346;DHT22;8790;53.590;10.002;2022-11-10T10:19:00;12.20;99.90
17346;DHT22;8790;53.590;10.002;2022-11-10T10:22:07;12.20;99.90
17346;DHT22;8790;53.590;10.002;2022-11-10T10:25:03;12.20;99.90
17346;DHT22;8790;53.590;10.002;2022-11-10T10:28:03;12.20;99.90
17346;DHT22;8790;53.590;10.002;2022-11-10T10:31:00;12.30;99.90
17346;DHT22;8790;53.590;10.002;2022-11-10T10:33:57;12.40;99.90
17346;DHT22;8790;53.590;10.002;2022-11-10T10:36:48;12.40;99.90
17346;DHT22;8790;53.590;10.002;2022-11-10T10:39:43;12.40;99.90
17346;DHT22;8790;53.590;10.002;2022-11-10T10:42:36;12.40;99.90
17346;DHT22;8790;53.590;10.002;2022-11-10T10:45:27;12.40;99.90
17346;DHT22;8790;53.590;10.002;2022-11-10T10:48:24;12.40;99.90
17346;DHT22;8790;53.590;10.002;2022-11-10T10:51:29;12.40;99.90
17346;DHT22;8790;53.590;10.002;2022-11-10T10:54:24;12.50;99.90
17346;DHT22;8790;53.590;10.002;2022-11-10T10:57:20;12.50;99.90
17346;DHT22;8790;53.590;10.002;2022-11-10T11:00:18;12.50;99.90
17346;DHT22;8790;53.590;10.002;2022-11-10T11:03:12;12.50;99.90
17346;DHT22;8790;53.590;10.002;2022-11-10T11:06:18;12.60;99.90
17346;DHT22;8790;53.590;10.002;2022-11-10T11:09:16;12.60;99.90
17346;DHT22;8790;53.590;10.002;2022-11-10T11:12:11;12.70;99.90
17346;DHT22;8790;53.590;10.002;2022-11-10T11:15:19;12.70;99.90
17346;DHT22;8790;53.590;10.002;2022-11-10T11:18:14;12.70;99.90
17346;DHT22;8790;53.590;10.002;2022-11-10T11:21:15;12.70;99.90
17346;DHT22;8790;53.590;10.002;2022-11-10T11:24:20;12.80;99.90
17346;DHT22;8790;53.590;10.002;2022-11-10T11:27:14;12.80;99.90
17346;DHT22;8790;53.590;10.002;2022-11-10T11:30:09;12.80;99.90
17346;DHT22;8790;53.590;10.002;2022-11-10T11:33:13;12.80;99.90
17346;DHT22;8790;53.590;10.002;2022-11-10T11:36:13;12.80;99.90
17346;DHT22;8790;53.590;10.002;2022-11-10T11:39:14;12.80;99.90
17346;DHT22;8790;53.590;10.002;2022-11-10T11:42:14;12.80;99.90
17346;DHT22;8790;53.590;10.002;2022-11-10T11:45:15;12.80;99.90
17346;DHT22;8790;53.590;10.002;2022-11-10T11:48:20;12.90;99.90
17346;DHT22;8790;53.590;10.002;2022-11-10T11:51:17;12.90;99.90
17346;DHT22;8790;53.590;10.002;2022-11-10T11:54:31;12.90;99.90
17346;DHT22;8790;53.590;10.002;2022-11-10T11:57:33;12.90;99.90
17346;DHT22;8790;53.590;10.002;2022-11-10T12:00:30;12.90;99.90
17346;DHT22;8790;53.590;10.002;2022-11-10T12:03:36;12.90;99.90
17346;DHT22;8790;53.590;10.002;2022-11-10T12:06:35;12.90;99.90
17346;DHT22;8790;53.590;10.002;2022-11-10T12:09:37;12.90;99.90
17346;DHT22;8790;53.590;10.002;2022-11-10T12:12:59;13.00;99.90
17346;DHT22;8790;53.590;10.002;2022-11-10T12:15:58;13.00;99.90
17346;DHT22;8790;53.590;10.002;2022-11-10T12:18:55;13.00;99.90
17346;DHT22;8790;53.590;10.002;2022-11-10T12:21:52;13.00;99.90
17346;DHT22;8790;53.590;10.002;2022-11-10T12:24:50;13.00;99.90
17346;DHT22;8790;53.590;10.002;2022-11-10T12:27:48;13.00;99.90
17346;DHT22;8790;53.590;10.002;2022-11-10T12:30:42;13.10;99.90
17346;DHT22;8790;53.590;10.002;2022-11-10T12:33:35;13.10;99.90
17346;DHT22;8790;53.590;10.002;2022-11-10T12:36:28;13.20;99.90
17346;DHT22;8790;53.590;10.002;2022-11-10T12:39:22;13.20;99.90
17346;DHT22;8790;53.590;10.002;2022-11-10T12:42:17;13.10;99.90
17346;DHT22;8790;53.590;10.002;2022-11-10T12:45:17;13.20;99.90
17346;DHT22;8790;53.590;10.002;2022-11-10T12:48:11;13.20;99.90
17346;DHT22;8790;53.590;10.002;2022-11-10T12:51:07;13.20;99.90
17346;DHT22;8790;53.590;10.002;2022-11-10T12:54:02;13.20;99.90
17346;DHT22;8790;53.590;10.002;2022-11-10T12:56:53;13.20;99.90
17346;DHT22;8790;53.590;10.002;2022-11-10T12:59:53;13.20;99.90
17346;DHT22;8790;53.590;10.002;2022-11-10T13:02:45;13.20;99.90
17346;DHT22;8790;53.590;10.002;2022-11-10T13:05:38;13.20;99.90
17346;DHT22;8790;53.590;10.002;2022-11-10T13:08:32;13.20;99.90
17346;DHT22;8790;53.590;10.002;2022-11-10T13:11:26;13.20;99.90
17346;DHT22;8790;53.590;10.002;2022-11-10T13:14:22;13.20;99.90
17346;DHT22;8790;53.590;10.002;2022-11-10T13:17:51;13.20;99.90
17346;DHT22;8790;53.590;10.002;2022-11-10T13:20:51;13.30;99.90
17346;DHT22;8790;53.590;10.002;2022-11-10T13:24:20;13.30;99.90
17346;DHT22;8790;53.590;10.002;2022-11-10T13:27:12;13.30;99.90
17346;DHT22;8790;53.590;10.002;2022-11-10T13:30:37;13.30;99.90
17346;DHT22;8790;53.590;10.002;2022-11-10T13:33:32;13.30;99.90
17346;DHT22;8790;53.590;10.002;2022-11-10T13:36:38;13.30;99.90
17346;DHT22;8790;53.590;10.002;2022-11-10T13:39:30;13.30;99.90
17346;DHT22;8790;53.590;10.002;2022-11-10T13:42:21;13.30;99.90
17346;DHT22;8790;53.590;10.002;2022-11-10T13:45:29;13.30;99.90
17346;DHT22;8790;53.590;10.002;2022-11-10T13:48:29;13.30;99.90
17346;DHT22;8790;53.590;10.002;2022-11-10T13:51:27;13.30;99.90
17346;DHT22;8790;53.590;10.002;2022-11-10T13:54:58;13.30;99.90
17346;DHT22;8790;53.590;10.002;2022-11-10T13:57:57;13.30;99.90
17346;DHT22;8790;53.590;10.002;2022-11-10T14:00:49;13.30;99.90
17346;DHT22;8790;53.590;10.002;2022-11-10T14:04:01;13.40;99.90
17346;DHT22;8790;53.590;10.002;2022-11-10T14:06:53;13.40;99.90
17346;DHT22;8790;53.590;10.002;2022-11-10T14:09:45;13.40;99.90
17346;DHT22;8790;53.590;10.002;2022-11-10T14:12:42;13.40;99.90
17346;DHT22;8790;53.590;10.002;2022-11-10T14:15:38;13.40;99.90
17346;DHT22;8790;53.590;10.002;2022-11-10T14:18:38;13.40;99.90
17346;DHT22;8790;53.590;10.002;2022-11-10T14:21:35;13.40;99.90
17346;DHT22;8790;53.590;10.002;2022-11-10T14:24:27;13.40;99.90
17346;DHT22;8790;53.590;10.002;2022-11-10T14:27:22;13.40;99.90
17346;DHT22;8790;53.590;10.002;2022-11-10T14:30:23;13.40;99.90
17346;DHT22;8790;53.590;10.002;2022-11-10T14:33:14;13.40;99.90
17346;DHT22;8790;53.590;10.002;2022-11-10T14:36:06;13.50;99.90
17346;DHT22;8790;53.590;10.002;2022-11-10T14:38:57;13.50;99.90
17346;DHT22;8790;53.590;10.002;2022-11-10T14:41:48;13.50;99.90
17346;DHT22;8790;53.590;10.002;2022-11-10T14:44:39;13.50;99.90
17346;DHT22;8790;53.590;10.002;2022-11-10T14:47:31;13.50;99.90
17346;DHT22;8790;53.590;10.002;2022-11-10T14:50:23;13.50;99.90
17346;DHT22;8790;53.590;10.002;2022-11-10T14:53:19;13.50;99.90
17346;DHT22;8790;53.590;10.002;2022-11-10T14:56:15;13.50;99.90
17346;DHT22;8790;53.590;10.002;2022-11-10T14:59:06;13.50;99.90
17346;DHT22;8790;53.590;10.002;2022-11-10T15:02:00;13.50;99.90
17346;DHT22;8790;53.590;10.002;2022-11-10T15:04:52;13.50;99.90
17346;DHT22;8790;53.590;10.002;2022-11-10T15:07:44;13.50;99.90
17346;DHT22;8790;53.590;10.002;2022-11-10T15:10:46;13.50;99.90
17346;DHT22;8790;53.590;10.002;2022-11-10T15:13:37;13.60;99.90
17346;DHT22;8790;53.590;10.002;2022-11-10T15:16:29;13.50;99.90
17346;DHT22;8790;53.590;10.002;2022-11-10T15:19:25;13.50;99.90
17346;DHT22;8790;53.590;10.002;2022-11-10T15:22:19;13.60;99.90
17346;DHT22;8790;53.590;10.002;2022-11-10T15:25:14;13.50;99.90
17346;DHT22;8790;53.590;10.002;2022-11-10T15:28:17;13.50;99.90
17346;DHT22;8790;53.590;10.002;2022-11-10T15:31:13;13.50;99.90
17346;DHT22;8790;53.590;10.002;2022-11-10T15:34:28;13.50;99.90
17346;DHT22;8790;53.590;10.002;2022-11-10T15:37:26;13.50;99.90
17346;DHT22;8790;53.590;10.002;2022-11-10T15:40:32;13.60;99.90
17346;DHT22;8790;53.590;10.002;2022-11-10T15:43:26;13.60;99.90
17346;DHT22;8790;53.590;10.002;2022-11-10T15:46:18;13.50;99.90
17346;DHT22;8790;53.590;10.002;2022-11-10T15:49:18;13.60;99.90
17346;DHT22;8790;53.590;10.002;2022-11-10T15:52:13;13.60;99.90
17346;DHT22;8790;53.590;10.002;2022-11-10T15:55:18;13.60;99.90
17346;DHT22;8790;53.590;10.002;2022-11-10T15:58:11;13.60;99.90
17346;DHT22;8790;53.590;10.002;2022-11-10T16:01:02;13.60;99.90
17346;DHT22;8790;53.590;10.002;2022-11-10T16:03:53;13.60;99.90
17346;DHT22;8790;53.590;10.002;2022-11-10T16:06:44;13.60;99.90
17346;DHT22;8790;53.590;10.002;2022-11-10T16:09:34;13.60;99.90
17346;DHT22;8790;53.590;10.002;2022-11-10T16:12:26;13.60;99.90
17346;DHT22;8790;53.590;10.002;2022-11-10T16:15:18;13.60;99.90
17346;DHT22;8790;53.590;10.002;2022-11-10T16:18:11;13.60;99.90
17346;DHT22;8790;53.590;10.002;2022-11-10T16:21:02;13.60;99.90
17346;DHT22;8790;53.590;10.002;2022-11-10T16:23:52;13.60;99.90
17346;DHT22;8790;53.590;10.002;2022-11-10T16:26:53;13.60;99.90
17346;DHT22;8790;53.590;10.002;2022-11-10T16:29:45;13.60;99.90
17346;DHT22;8790;53.590;10.002;2022-11-10T16:32:35;13.60;99.90
17346;DHT22;8790;53.590;10.002;2022-11-10T16:35:26;13.60;99.90
17346;DHT22;8790;53.590;10.002;2022-11-10T16:38:19;13.60;99.90
17346;DHT22;8790;53.590;10.002;2022-11-10T16:41:12;13.70;99.90
17346;DHT22;8790;53.590;10.002;2022-11-10T16:44:04;13.60;99.90
17346;DHT22;8790;53.590;10.002;2022-11-10T16:46:55;13.70;99.90
17346;DHT22;8790;53.590;10.002;2022-11-10T16:49:46;13.70;99.90
17346;DHT22;8790;53.590;10.002;2022-11-10T16:52:38;13.70;99.90
17346;DHT22;8790;53.590;10.002;2022-11-10T16:55:29;13.70;99.90
17346;DHT22;8790;53.590;10.002;2022-11-10T16:58:20;13.70;99.90
17346;DHT22;8790;53.590;10.002;2022-11-10T17:01:16;13.70;99.90
17346;DHT22;8790;53.590;10.002;2022-11-10T17:04:10;13.70;99.90
17346;DHT22;8790;53.590;10.002;2022-11-10T17:07:01;13.70;99.90
17346;DHT22;8790;53.590;10.002;2022-11-10T17:09:52;13.70;99.90
17346;DHT22;8790;53.590;10.002;2022-11-10T17:12:42;13.70;99.90
17346;DHT22;8790;53.590;10.002;2022-11-10T17:15:33;13.80;99.90
17346;DHT22;8790;53.590;10.002;2022-11-10T17:18:23;13.80;99.90
17346;DHT22;8790;53.590;10.002;2022-11-10T17:21:15;13.80;99.90
17346;DHT22;8790;53.590;10.002;2022-11-10T17:24:08;13.80;99.90
17346;DHT22;8790;53.590;10.002;2022-11-10T17:27:00;13.80;99.90
17346;DHT22;8790;53.590;10.002;2022-11-10T17:29:50;13.80;99.90
17346;DHT22;8790;53.590;10.002;2022-11-10T17:32:41;13.80;99.90
17346;DHT22;8790;53.590;10.002;2022-11-10T17:35:31;13.80;99.90
17346;DHT22;8790;53.590;10.002;2022-11-10T17:38:25;13.80;99.90
17346;DHT22;8790;53.590;10.002;2022-11-10T17:41:17;13.80;99.90
17346;DHT22;8790;53.590;10.002;2022-11-10T17:44:11;13.80;99.90
17346;DHT22;8790;53.590;10.002;2022-11-10T17:47:02;13.80;99.90
17346;DHT22;8790;53.590;10.002;2022-11-10T17:49:53;13.80;99.90
17346;DHT22;8790;53.590;10.002;2022-11-10T17:52:44;13.80;99.90
17346;DHT22;8790;53.590;10.002;2022-11-10T17:55:36;13.80;99.90
17346;DHT22;8790;53.590;10.002;2022-11-10T17:58:26;13.80;99.90
17346;DHT22;8790;53.590;10.002;2022-11-10T18:01:19;13.80;99.90
17346;DHT22;8790;53.590;10.002;2022-11-10T18:04:11;13.80;99.90
17346;DHT22;8790;53.590;10.002;2022-11-10T18:07:01;13.80;99.90
17346;DHT22;8790;53.590;10.002;2022-11-10T18:09:52;13.80;99.90
17346;DHT22;8790;53.590;10.002;2022-11-10T18:12:44;13.80;99.90
17346;DHT22;8790;53.590;10.002;2022-11-10T18:15:35;13.80;99.90
17346;DHT22;8790;53.590;10.002;2022-11-10T18:18:25;13.80;99.90